Time;durP1;ratioP1;P1;durP2;ratioP2;P2;SDS_P1;SDS_P2;PMS_P1;PMS_P2;Temp;Humidity;BMP_temperature;BMP_pressure;BME280_temperature;BME280_humidity;BME280_pressure;Samples;Min_cycle;Max_cycle;Signal;HPM_P1;HPM_P2
2024/02/26 00:01:39;;;;;;;1.55;0.50;;;5.00;99.90;;;;;;5033906;28;20076;-84
2024/02/26 00:04:05;;;;;;;0.80;0.40;;;5.00;99.90;;;;;;5035104;28;20037;-85
2024/02/26 00:06:31;;;;;;;1.17;0.40;;;4.90;99.90;;;;;;5033464;28;20033;-86
2024/02/26 00:08:57;;;;;;;1.50;0.50;;;4.90;99.90;;;;;;5017299;28;20111;-84
2024/02/26 00:11:22;;;;;;;1.67;0.50;;;5.00;99.90;;;;;;5035293;28;20118;-84
2024/02/26 00:13:48;;;;;;;1.33;0.50;;;5.00;99.90;;;;;;5034515;28;20037;-84
2024/02/26 00:16:14;;;;;;;1.10;0.40;;;5.00;99.90;;;;;;5034042;28;20447;-84
2024/02/26 00:18:39;;;;;;;1.02;0.38;;;5.00;99.90;;;;;;5052391;28;20041;-86
2024/02/26 00:21:05;;;;;;;1.45;0.50;;;4.90;99.90;;;;;;5034211;28;20013;-85
2024/02/26 00:23:31;;;;;;;1.17;0.50;;;5.00;99.90;;;;;;5031812;28;20489;-85
2024/02/26 00:25:56;;;;;;;1.27;0.50;;;4.90;99.90;;;;;;5033939;28;20052;-86
2024/02/26 00:28:22;;;;;;;1.52;0.40;;;4.90;99.90;;;;;;5015757;28;20025;-87
2024/02/26 00:30:48;;;;;;;1.45;0.45;;;5.00;99.90;;;;;;5049146;28;20045;-85
2024/02/26 00:33:17;;;;;;;2.17;0.40;;;5.00;99.90;;;;;;5029926;28;20041;-85
2024/02/26 00:35:43;;;;;;;1.30;0.50;;;5.00;99.90;;;;;;5027717;28;20040;-83
2024/02/26 00:38:08;;;;;;;1.08;0.43;;;4.90;99.90;;;;;;5033332;28;20025;-85
2024/02/26 00:40:34;;;;;;;1.15;0.40;;;5.00;99.90;;;;;;5025492;28;20030;-85
2024/02/26 00:43:00;;;;;;;1.27;0.50;;;4.90;99.90;;;;;;5012487;28;20362;-83
2024/02/26 00:45:25;;;;;;;1.50;0.50;;;4.90;99.90;;;;;;5031419;28;20542;-84
2024/02/26 00:47:51;;;;;;;1.23;0.50;;;5.00;99.90;;;;;;5010220;28;20045;-85
2024/02/26 00:50:17;;;;;;;1.27;0.50;;;5.00;99.90;;;;;;5015076;28;20144;-85
2024/02/26 00:52:42;;;;;;;1.20;0.40;;;5.00;99.90;;;;;;5025400;28;20032;-86
2024/02/26 00:55:08;;;;;;;1.33;0.50;;;5.00;99.90;;;;;;5014605;28;20034;-83
2024/02/26 00:57:34;;;;;;;1.38;0.60;;;4.90;99.90;;;;;;5043280;28;20026;-86
2024/02/26 01:00:00;;;;;;;1.20;0.50;;;5.00;99.90;;;;;;5011684;28;20033;-83
2024/02/26 01:02:26;;;;;;;1.52;0.52;;;5.00;99.90;;;;;;5015022;28;20041;-87
2024/02/26 01:04:52;;;;;;;1.75;0.65;;;5.00;99.90;;;;;;5031871;28;20052;-83
2024/02/26 01:07:18;;;;;;;1.45;0.60;;;5.00;99.90;;;;;;5013374;28;20087;-86
2024/02/26 01:09:44;;;;;;;1.52;0.60;;;5.10;99.90;;;;;;5030220;28;20029;-86
2024/02/26 01:12:10;;;;;;;2.45;0.70;;;5.10;99.90;;;;;;5011818;28;20055;-85
2024/02/26 01:14:35;;;;;;;0.85;0.40;;;5.10;99.90;;;;;;5031920;28;20474;-83
2024/02/26 01:17:01;;;;;;;1.52;0.50;;;5.10;99.90;;;;;;5012398;28;20057;-83
2024/02/26 01:19:27;;;;;;;1.30;0.57;;;5.10;99.90;;;;;;5045825;28;20083;-85
2024/02/26 01:21:53;;;;;;;1.60;0.73;;;5.10;99.90;;;;;;5031725;28;20025;-84
2024/02/26 01:24:19;;;;;;;2.33;0.70;;;5.10;99.90;;;;;;5027428;28;20032;-83
2024/02/26 01:26:44;;;;;;;1.80;0.60;;;5.10;99.90;;;;;;5012783;28;20507;-84
2024/02/26 01:29:10;;;;;;;1.48;0.70;;;5.10;99.90;;;;;;5028685;28;20508;-82
2024/02/26 01:31:36;;;;;;;1.50;0.60;;;5.10;99.90;;;;;;5025826;28;20053;-85
2024/02/26 01:34:02;;;;;;;1.52;0.70;;;5.10;99.90;;;;;;5027899;28;20045;-85
2024/02/26 01:36:27;;;;;;;1.30;0.80;;;5.10;99.90;;;;;;5030092;28;20033;-86
2024/02/26 01:38:53;;;;;;;1.25;0.55;;;5.20;99.90;;;;;;5029588;28;20029;-84
2024/02/26 01:41:19;;;;;;;1.50;0.60;;;5.10;99.90;;;;;;5046899;28;20029;-85
2024/02/26 01:43:44;;;;;;;2.65;0.55;;;5.10;99.90;;;;;;5028643;28;20478;-86
2024/02/26 01:46:14;;;;;;;1.35;0.60;;;5.10;99.90;;;;;;5014896;28;20473;-86
2024/02/26 01:48:43;;;;;;;1.55;0.52;;;5.20;99.90;;;;;;5010073;28;20488;-85
2024/02/26 01:51:12;;;;;;;2.17;0.60;;;5.20;99.90;;;;;;5027588;28;20038;-86
2024/02/26 01:53:38;;;;;;;1.48;0.60;;;5.20;99.90;;;;;;5028571;28;20037;-85
2024/02/26 01:56:04;;;;;;;1.75;0.40;;;5.20;99.90;;;;;;5030938;28;20040;-85
2024/02/26 01:58:31;;;;;;;0.98;0.50;;;5.20;99.90;;;;;;5027859;28;20034;-85
2024/02/26 02:00:57;;;;;;;1.00;0.40;;;5.20;99.90;;;;;;5029939;28;20030;-83
2024/02/26 02:03:23;;;;;;;1.33;0.60;;;5.20;99.90;;;;;;5013236;28;20052;-87
2024/02/26 02:05:49;;;;;;;1.65;0.40;;;5.20;99.90;;;;;;5008536;28;20091;-85
2024/02/26 02:08:15;;;;;;;2.45;0.60;;;5.30;99.90;;;;;;5028492;28;20477;-85
2024/02/26 02:10:44;;;;;;;1.20;0.50;;;5.30;99.90;;;;;;5046291;28;20026;-84
2024/02/26 02:13:10;;;;;;;1.08;0.47;;;5.30;99.90;;;;;;5026897;28;20728;-85
2024/02/26 02:15:35;;;;;;;1.00;0.40;;;5.30;99.90;;;;;;5012011;28;20112;-84
2024/02/26 02:18:01;;;;;;;1.38;0.50;;;5.30;99.90;;;;;;5013760;28;20033;-83
2024/02/26 02:20:36;;;;;;;1.77;0.60;;;5.30;99.90;;;;;;5029798;28;20024;-84
2024/02/26 02:23:02;;;;;;;1.83;0.50;;;5.20;99.90;;;;;;5022822;28;20046;-84
2024/02/26 02:25:28;;;;;;;1.20;0.60;;;5.30;99.90;;;;;;5013408;28;20159;-84
2024/02/26 02:27:55;;;;;;;0.95;0.45;;;5.30;99.90;;;;;;5027942;28;20120;-85
2024/02/26 02:30:28;;;;;;;0.80;0.40;;;5.30;99.90;;;;;;5028293;28;20056;-83
2024/02/26 02:32:54;;;;;;;1.67;0.50;;;5.20;99.90;;;;;;5013389;28;20038;-84
2024/02/26 02:35:21;;;;;;;1.20;0.50;;;5.20;99.90;;;;;;5026702;28;20469;-85
2024/02/26 02:37:47;;;;;;;1.48;0.50;;;5.30;99.90;;;;;;5024705;28;20049;-83
2024/02/26 02:40:12;;;;;;;1.65;0.50;;;5.30;99.90;;;;;;5009944;28;20048;-85
2024/02/26 02:42:38;;;;;;;1.30;0.45;;;5.20;99.90;;;;;;5010047;28;20029;-85
2024/02/26 02:45:04;;;;;;;1.02;0.38;;;5.30;99.90;;;;;;5011426;28;20041;-85
2024/02/26 02:47:30;;;;;;;1.10;0.40;;;5.30;99.90;;;;;;5012375;28;20037;-83
2024/02/26 02:49:55;;;;;;;1.55;0.50;;;5.30;99.90;;;;;;5008236;28;20037;-85
2024/02/26 02:52:21;;;;;;;1.60;0.57;;;5.20;99.90;;;;;;5029327;28;20057;-86
2024/02/26 02:54:47;;;;;;;1.60;0.50;;;5.20;99.90;;;;;;5044210;28;20666;-85
2024/02/26 02:57:12;;;;;;;1.08;0.40;;;5.30;99.90;;;;;;5010559;28;20481;-83
2024/02/26 02:59:39;;;;;;;2.17;0.50;;;5.20;99.90;;;;;;5028444;28;20039;-85
2024/02/26 03:02:04;;;;;;;0.90;0.32;;;5.20;99.90;;;;;;5025828;28;20249;-86
2024/02/26 03:04:30;;;;;;;0.90;0.40;;;5.20;99.90;;;;;;5011851;28;20554;-84
2024/02/26 03:06:56;;;;;;;1.05;0.40;;;5.20;99.90;;;;;;5027377;28;20053;-86
2024/02/26 03:09:21;;;;;;;1.25;0.30;;;5.20;99.90;;;;;;5028742;28;20030;-85
2024/02/26 03:11:47;;;;;;;1.40;0.50;;;5.20;99.90;;;;;;5040958;28;20641;-85
2024/02/26 03:14:13;;;;;;;0.90;0.40;;;5.20;99.90;;;;;;5028215;28;20091;-85
2024/02/26 03:16:39;;;;;;;0.80;0.22;;;5.20;99.90;;;;;;5012187;28;20033;-85
2024/02/26 03:19:04;;;;;;;0.90;0.40;;;5.20;99.90;;;;;;5030316;28;20033;-86
2024/02/26 03:21:30;;;;;;;1.33;0.50;;;5.20;99.90;;;;;;5016377;28;20420;-86
2024/02/26 03:23:57;;;;;;;1.40;0.50;;;5.20;99.90;;;;;;5016591;28;20026;-84
2024/02/26 03:26:23;;;;;;;0.98;0.40;;;5.20;99.90;;;;;;5015924;28;20360;-84
2024/02/26 03:28:48;;;;;;;1.95;0.40;;;5.20;99.90;;;;;;5029601;28;20116;-85
2024/02/26 03:31:14;;;;;;;1.33;0.40;;;5.20;99.90;;;;;;5014603;28;20041;-85
2024/02/26 03:33:40;;;;;;;1.13;0.50;;;5.20;99.90;;;;;;5031714;28;20049;-85
2024/02/26 03:36:07;;;;;;;2.00;0.40;;;5.30;99.90;;;;;;5033078;28;20129;-87
2024/02/26 03:38:33;;;;;;;0.93;0.40;;;5.30;99.90;;;;;;5033262;28;20043;-85
2024/02/26 03:40:59;;;;;;;1.60;0.50;;;5.20;99.90;;;;;;5035025;28;20057;-84
2024/02/26 03:43:24;;;;;;;2.13;0.43;;;5.20;99.90;;;;;;5028547;28;20061;-83
2024/02/26 03:45:50;;;;;;;0.75;0.30;;;5.20;99.90;;;;;;5013902;28;20592;-86
2024/02/26 03:48:16;;;;;;;0.95;0.40;;;5.20;99.90;;;;;;5028123;28;20107;-85
2024/02/26 03:50:41;;;;;;;1.63;0.30;;;5.20;99.90;;;;;;5013361;28;20025;-86
2024/02/26 03:53:09;;;;;;;1.23;0.50;;;5.20;99.90;;;;;;5014481;28;20064;-85
2024/02/26 03:55:34;;;;;;;1.20;0.40;;;5.20;99.90;;;;;;5011555;28;20025;-86
2024/02/26 03:58:00;;;;;;;1.20;0.40;;;5.20;99.90;;;;;;5013079;28;20025;-85
2024/02/26 04:00:28;;;;;;;1.10;0.47;;;5.20;99.90;;;;;;5011960;28;20026;-85
2024/02/26 04:02:54;;;;;;;1.23;0.40;;;5.20;99.90;;;;;;5008644;28;20025;-85
2024/02/26 04:05:20;;;;;;;1.40;0.50;;;5.20;99.90;;;;;;5014233;28;20136;-85
2024/02/26 04:07:45;;;;;;;0.90;0.40;;;5.20;99.90;;;;;;5033370;28;20309;-85
2024/02/26 04:10:11;;;;;;;2.35;0.55;;;5.20;99.90;;;;;;5013549;28;20030;-84
2024/02/26 04:12:41;;;;;;;1.30;0.60;;;5.20;99.90;;;;;;5012557;28;20507;-83
2024/02/26 04:15:10;;;;;;;1.10;0.40;;;5.20;99.90;;;;;;5014725;28;20393;-84
2024/02/26 04:17:37;;;;;;;0.93;0.50;;;5.20;99.90;;;;;;5031936;28;20037;-83
2024/02/26 04:20:04;;;;;;;1.30;0.60;;;5.20;99.90;;;;;;5032131;28;20017;-85
2024/02/26 04:22:32;;;;;;;1.15;0.45;;;5.20;99.90;;;;;;5027930;28;20065;-85
2024/02/26 04:24:57;;;;;;;1.23;0.60;;;5.10;99.90;;;;;;5028792;28;20117;-85
2024/02/26 04:27:23;;;;;;;1.02;0.40;;;5.20;99.90;;;;;;5042894;28;20116;-85
2024/02/26 04:29:48;;;;;;;1.38;0.40;;;5.10;99.90;;;;;;5030249;28;20034;-84
2024/02/26 04:32:14;;;;;;;0.93;0.40;;;5.10;99.90;;;;;;5031670;28;20032;-85
2024/02/26 04:34:40;;;;;;;1.05;0.50;;;5.10;99.90;;;;;;5051617;28;20090;-88
2024/02/26 04:37:05;;;;;;;1.20;0.50;;;5.10;99.90;;;;;;5033690;28;20029;-84
2024/02/26 04:39:31;;;;;;;1.48;0.52;;;5.10;99.90;;;;;;5031715;28;20031;-85
2024/02/26 04:41:57;;;;;;;1.33;0.57;;;5.10;99.90;;;;;;5032721;28;20025;-86
2024/02/26 04:44:22;;;;;;;1.80;0.90;;;5.10;99.90;;;;;;5051586;28;20024;-83
2024/02/26 04:46:48;;;;;;;2.22;0.75;;;5.10;99.90;;;;;;5033086;28;20036;-85
2024/02/26 04:49:13;;;;;;;1.88;0.70;;;5.00;99.90;;;;;;5015890;28;20024;-85
2024/02/26 04:51:39;;;;;;;1.50;0.63;;;5.00;99.90;;;;;;5053512;28;20135;-86
2024/02/26 04:54:05;;;;;;;1.23;0.47;;;5.00;99.90;;;;;;5034247;28;20128;-87
2024/02/26 04:56:30;;;;;;;1.77;0.90;;;5.00;99.90;;;;;;5033963;28;20024;-86
2024/02/26 04:58:56;;;;;;;2.00;0.95;;;5.00;99.90;;;;;;5033935;28;20123;-86
2024/02/26 05:01:22;;;;;;;1.65;0.60;;;4.90;99.90;;;;;;5032156;28;20086;-89
2024/02/26 05:03:47;;;;;;;1.88;0.68;;;5.00;99.90;;;;;;5021963;28;20062;-86
2024/02/26 05:06:13;;;;;;;2.60;0.73;;;4.90;99.90;;;;;;5031398;28;20036;-87
2024/02/26 05:08:39;;;;;;;1.40;0.60;;;4.90;99.90;;;;;;5029815;28;20082;-86
2024/02/26 05:11:05;;;;;;;2.53;1.00;;;4.90;99.90;;;;;;5032592;28;20473;-86
2024/02/26 05:13:31;;;;;;;1.77;0.60;;;4.90;99.90;;;;;;5034598;28;20048;-86
2024/02/26 05:15:57;;;;;;;1.85;1.02;;;4.90;99.90;;;;;;5031167;28;20021;-87
2024/02/26 05:18:24;;;;;;;1.50;0.60;;;4.90;99.90;;;;;;5029979;28;20033;-85
2024/02/26 05:20:49;;;;;;;2.03;0.70;;;4.90;99.90;;;;;;5049770;28;20029;-85
2024/02/26 05:23:15;;;;;;;2.33;0.70;;;4.90;99.90;;;;;;5018229;28;20033;-85
2024/02/26 05:25:41;;;;;;;2.38;0.98;;;4.90;99.90;;;;;;5012615;28;20033;-86
2024/02/26 05:28:07;;;;;;;1.77;0.70;;;4.90;99.90;;;;;;5015704;28;20025;-85
2024/02/26 05:30:32;;;;;;;2.33;0.80;;;4.90;99.90;;;;;;5016338;28;20104;-85
2024/02/26 05:32:58;;;;;;;2.13;0.88;;;4.90;99.90;;;;;;5029510;28;20041;-84
2024/02/26 05:35:28;;;;;;;1.70;0.70;;;4.90;99.90;;;;;;5027868;28;20108;-86
2024/02/26 05:37:54;;;;;;;1.40;0.68;;;4.90;99.90;;;;;;5032382;28;20075;-86
2024/02/26 05:40:19;;;;;;;2.35;0.50;;;4.90;99.90;;;;;;5042551;28;20139;-85
2024/02/26 05:42:45;;;;;;;1.80;0.70;;;4.90;99.90;;;;;;5024614;28;20051;-85
2024/02/26 05:45:10;;;;;;;1.55;0.70;;;4.90;99.90;;;;;;5028339;28;20029;-83
2024/02/26 05:47:42;;;;;;;1.58;0.70;;;4.90;99.90;;;;;;5029085;28;20033;-86
2024/02/26 05:50:10;;;;;;;1.80;0.90;;;4.90;99.90;;;;;;5028281;28;20026;-85
2024/02/26 05:52:37;;;;;;;1.85;0.80;;;4.90;99.90;;;;;;5046595;28;20484;-85
2024/02/26 05:55:03;;;;;;;1.58;0.77;;;4.90;99.90;;;;;;5016571;28;20404;-85
2024/02/26 05:57:28;;;;;;;2.80;0.80;;;4.90;99.90;;;;;;5030303;28;20108;-83
2024/02/26 05:59:54;;;;;;;2.88;1.00;;;4.90;99.90;;;;;;5029389;28;20025;-83
2024/02/26 06:02:20;;;;;;;4.55;1.17;;;4.90;99.90;;;;;;5013618;28;20510;-86
2024/02/26 06:04:46;;;;;;;2.17;1.30;;;4.90;99.90;;;;;;5028044;28;20041;-85
2024/02/26 06:07:12;;;;;;;3.50;1.52;;;4.90;99.90;;;;;;5027495;28;20026;-85
2024/02/26 06:09:39;;;;;;;1.90;0.93;;;4.90;99.90;;;;;;5022507;28;20029;-89
2024/02/26 06:12:05;;;;;;;1.77;0.70;;;4.80;99.90;;;;;;5023379;28;20084;-85
2024/02/26 06:14:31;;;;;;;2.20;1.05;;;4.80;99.90;;;;;;5026066;28;20046;-84
2024/02/26 06:16:56;;;;;;;2.08;0.90;;;4.90;99.90;;;;;;5041260;28;20095;-85
2024/02/26 06:19:22;;;;;;;2.00;0.90;;;4.80;99.90;;;;;;5023780;28;20082;-85
2024/02/26 06:21:47;;;;;;;2.63;1.30;;;4.90;99.90;;;;;;5009175;28;20260;-86
2024/02/26 06:24:13;;;;;;;3.05;1.27;;;4.80;99.90;;;;;;5020669;28;20053;-84
2024/02/26 06:26:39;;;;;;;2.50;1.10;;;4.90;99.90;;;;;;5003417;28;20063;-87
2024/02/26 06:29:04;;;;;;;2.88;1.20;;;4.90;99.90;;;;;;5016779;28;20076;-83
2024/02/26 06:31:33;;;;;;;2.65;1.67;;;4.80;99.90;;;;;;5006435;28;20529;-88
2024/02/26 06:33:58;;;;;;;2.67;1.30;;;4.80;99.90;;;;;;5016940;28;20098;-83
2024/02/26 06:36:25;;;;;;;3.03;1.33;;;4.80;99.90;;;;;;5021248;28;20028;-85
2024/02/26 06:38:53;;;;;;;3.38;1.75;;;4.80;99.90;;;;;;5027040;28;20060;-84
2024/02/26 06:41:19;;;;;;;3.50;1.15;;;4.80;99.90;;;;;;5006145;28;20022;-85
2024/02/26 06:43:45;;;;;;;2.63;1.40;;;4.80;99.90;;;;;;5024842;28;20379;-87
2024/02/26 06:46:10;;;;;;;2.92;1.40;;;4.80;99.90;;;;;;5007055;28;20230;-83
2024/02/26 06:48:36;;;;;;;2.58;1.45;;;4.80;99.90;;;;;;5026225;28;20349;-82
2024/02/26 06:51:02;;;;;;;2.40;0.85;;;4.80;99.90;;;;;;5021309;28;20079;-84
2024/02/26 06:53:28;;;;;;;1.65;0.70;;;4.80;99.90;;;;;;5007119;28;20394;-85
2024/02/26 06:55:54;;;;;;;2.83;1.13;;;4.80;99.90;;;;;;5028153;28;20033;-84
2024/02/26 06:58:19;;;;;;;2.72;0.98;;;4.80;99.90;;;;;;5023053;28;20064;-85
2024/02/26 07:00:46;;;;;;;2.35;1.40;;;4.80;99.90;;;;;;5038778;28;20348;-84
2024/02/26 07:03:13;;;;;;;2.22;1.10;;;4.80;99.90;;;;;;5026224;28;20088;-85
2024/02/26 07:05:39;;;;;;;2.50;1.35;;;4.90;99.90;;;;;;5003117;28;20026;-85
2024/02/26 07:08:05;;;;;;;2.42;1.00;;;4.80;99.90;;;;;;5007013;28;20480;-85
2024/02/26 07:10:31;;;;;;;2.10;1.08;;;4.90;99.90;;;;;;5006882;28;20029;-85
2024/02/26 07:12:56;;;;;;;2.00;0.90;;;4.90;99.90;;;;;;5013777;28;20033;-85
2024/02/26 07:15:22;;;;;;;2.35;0.80;;;4.90;99.90;;;;;;5024780;28;20120;-85
2024/02/26 07:17:49;;;;;;;2.25;1.10;;;4.90;99.90;;;;;;5042135;28;20377;-85
2024/02/26 07:20:15;;;;;;;1.95;1.00;;;4.90;99.90;;;;;;5022037;28;20128;-86
2024/02/26 07:22:42;;;;;;;2.00;1.02;;;4.90;99.90;;;;;;5011640;28;20146;-85
2024/02/26 07:25:08;;;;;;;2.10;0.90;;;4.90;99.90;;;;;;5023632;28;20030;-85
2024/02/26 07:27:34;;;;;;;3.80;1.05;;;4.90;99.90;;;;;;5011303;28;20080;-85
2024/02/26 07:30:00;;;;;;;2.20;1.00;;;4.90;99.90;;;;;;5027257;28;20052;-84
2024/02/26 07:32:25;;;;;;;3.45;1.42;;;4.90;99.90;;;;;;5025777;28;20397;-85
2024/02/26 07:34:51;;;;;;;1.75;0.90;;;4.90;99.90;;;;;;5010143;28;20026;-86
2024/02/26 07:37:16;;;;;;;3.33;1.67;;;4.90;99.90;;;;;;5025569;28;20021;-83
2024/02/26 07:39:42;;;;;;;2.08;1.38;;;4.90;99.90;;;;;;5022710;28;20520;-85
2024/02/26 07:42:08;;;;;;;2.08;0.95;;;5.00;99.90;;;;;;5020911;28;20045;-85
2024/02/26 07:44:33;;;;;;;1.80;0.95;;;4.90;99.90;;;;;;5006019;28;20091;-85
2024/02/26 07:46:59;;;;;;;2.00;1.02;;;5.00;99.90;;;;;;5022126;28;20057;-85
2024/02/26 07:49:25;;;;;;;1.85;0.80;;;5.00;99.90;;;;;;5010258;28;20025;-85
2024/02/26 07:51:51;;;;;;;2.47;0.90;;;5.00;99.90;;;;;;5026496;28;20124;-85
2024/02/26 07:54:16;;;;;;;2.83;0.85;;;5.00;99.90;;;;;;5023048;28;20044;-85
2024/02/26 07:56:42;;;;;;;2.55;1.48;;;5.00;99.90;;;;;;5041598;28;20026;-85
2024/02/26 07:59:09;;;;;;;2.20;1.10;;;5.00;99.90;;;;;;5004963;28;20491;-85
2024/02/26 08:01:35;;;;;;;2.03;0.70;;;5.10;99.90;;;;;;5026417;28;20554;-83
2024/02/26 08:04:01;;;;;;;2.13;1.10;;;5.10;99.90;;;;;;5028704;28;20025;-85
2024/02/26 08:06:27;;;;;;;2.55;1.55;;;5.10;99.90;;;;;;5049182;28;20374;-85
2024/02/26 08:08:52;;;;;;;2.90;2.05;;;5.10;99.90;;;;;;5030796;28;20043;-85
2024/02/26 08:11:18;;;;;;;2.88;1.50;;;5.10;99.90;;;;;;5032592;28;20036;-85
2024/02/26 08:13:44;;;;;;;4.18;2.00;;;5.10;99.90;;;;;;5049335;28;20032;-85
2024/02/26 08:16:10;;;;;;;3.75;2.50;;;5.20;99.90;;;;;;5029519;28;20021;-84
2024/02/26 08:18:36;;;;;;;5.10;2.35;;;5.10;99.90;;;;;;5028371;28;20032;-85
2024/02/26 08:21:02;;;;;;;5.80;3.92;;;5.10;99.90;;;;;;5033017;28;20512;-84
2024/02/26 08:23:28;;;;;;;4.95;3.55;;;5.20;99.90;;;;;;5046175;28;20381;-85
2024/02/26 08:25:54;;;;;;;4.75;3.17;;;5.10;99.90;;;;;;5014767;28;20052;-85
2024/02/26 08:28:20;;;;;;;5.22;3.80;;;5.20;99.90;;;;;;5050586;28;20057;-84
2024/02/26 08:30:45;;;;;;;4.45;2.90;;;5.20;99.90;;;;;;5014885;28;20473;-85
2024/02/26 08:33:11;;;;;;;6.35;3.90;;;5.20;99.90;;;;;;5007654;28;20517;-83
2024/02/26 08:35:37;;;;;;;6.05;3.67;;;5.20;99.90;;;;;;5016526;28;20045;-85
2024/02/26 08:38:03;;;;;;;6.85;5.03;;;5.20;99.90;;;;;;5016382;28;20059;-87
2024/02/26 08:40:29;;;;;;;8.10;4.45;;;5.20;99.90;;;;;;5009781;28;20296;-86
2024/02/26 08:42:58;;;;;;;5.38;4.30;;;5.20;99.90;;;;;;5029872;28;20033;-85
2024/02/26 08:45:24;;;;;;;5.40;3.65;;;5.30;99.90;;;;;;5038336;28;20112;-86
2024/02/26 08:47:50;;;;;;;6.20;2.78;;;5.30;99.90;;;;;;5040261;28;20033;-85
2024/02/26 08:50:15;;;;;;;4.97;2.88;;;5.30;99.90;;;;;;5028621;28;20035;-85
2024/02/26 08:52:41;;;;;;;5.32;3.45;;;5.30;99.90;;;;;;5008782;28;20081;-84
2024/02/26 08:55:08;;;;;;;4.63;3.13;;;5.30;99.90;;;;;;5029131;28;20056;-85
2024/02/26 08:57:34;;;;;;;4.88;3.15;;;5.30;99.90;;;;;;5024736;28;20039;-85
2024/02/26 09:00:01;;;;;;;4.70;3.40;;;5.40;99.90;;;;;;5025549;28;20053;-85
2024/02/26 09:02:27;;;;;;;6.15;4.03;;;5.30;99.90;;;;;;5025019;28;20041;-85
2024/02/26 09:04:54;;;;;;;5.40;3.65;;;5.40;99.90;;;;;;5026647;28;20040;-85
2024/02/26 09:07:21;;;;;;;5.63;3.53;;;5.40;99.90;;;;;;5018002;28;20528;-85
2024/02/26 09:09:47;;;;;;;5.60;3.80;;;5.40;99.90;;;;;;5040666;28;20036;-85
2024/02/26 09:12:12;;;;;;;5.50;3.50;;;5.40;99.90;;;;;;5040624;28;20027;-84
2024/02/26 09:14:40;;;;;;;6.72;4.05;;;5.40;99.90;;;;;;5020343;28;20060;-85
2024/02/26 09:17:07;;;;;;;6.78;4.53;;;5.40;99.90;;;;;;5018175;28;20040;-84
2024/02/26 09:19:33;;;;;;;8.10;4.53;;;5.50;99.90;;;;;;5021425;28;20029;-85
2024/02/26 09:21:58;;;;;;;6.05;3.95;;;5.50;99.90;;;;;;5017018;28;20436;-85
2024/02/26 09:24:24;;;;;;;9.63;5.50;;;5.40;99.90;;;;;;5041134;28;20030;-85
2024/02/26 09:26:53;;;;;;;6.85;4.10;;;5.50;99.90;;;;;;5040000;28;20025;-84
2024/02/26 09:29:19;;;;;;;6.32;3.58;;;5.50;99.90;;;;;;5020365;28;20389;-85
2024/02/26 09:31:47;;;;;;;4.75;3.10;;;5.50;99.90;;;;;;5019851;28;20037;-84
2024/02/26 09:34:13;;;;;;;5.40;3.50;;;5.50;99.90;;;;;;5001712;28;20033;-84
2024/02/26 09:36:39;;;;;;;6.90;4.18;;;5.50;99.90;;;;;;5020143;28;20024;-83
2024/02/26 09:39:05;;;;;;;7.20;4.32;;;5.50;99.90;;;;;;5024715;28;20052;-85
2024/02/26 09:41:31;;;;;;;7.10;4.32;;;5.50;99.90;;;;;;5039602;28;20029;-84
2024/02/26 09:43:57;;;;;;;6.82;4.13;;;5.50;99.90;;;;;;5017053;28;20458;-84
2024/02/26 09:46:25;;;;;;;8.07;4.95;;;5.60;99.90;;;;;;5034961;28;20397;-85
2024/02/26 09:48:51;;;;;;;6.75;4.40;;;5.60;99.90;;;;;;5023686;28;20057;-84
2024/02/26 09:51:17;;;;;;;6.38;4.07;;;5.60;99.90;;;;;;5035608;28;20607;-83
2024/02/26 09:53:45;;;;;;;6.18;3.40;;;5.60;99.90;;;;;;5017377;28;20052;-83
2024/02/26 09:56:12;;;;;;;6.50;4.22;;;5.60;99.90;;;;;;5007369;28;20025;-84
2024/02/26 09:58:41;;;;;;;6.15;4.00;;;5.60;99.90;;;;;;5032105;28;20029;-84
2024/02/26 10:01:13;;;;;;;6.15;3.85;;;5.60;99.90;;;;;;5007495;28;20053;-84
2024/02/26 10:03:41;;;;;;;7.30;4.68;;;5.70;99.90;;;;;;5016551;28;20029;-84
2024/02/26 10:06:13;;;;;;;7.47;4.70;;;5.60;99.90;;;;;;5019617;28;20056;-83
2024/02/26 10:08:39;;;;;;;5.93;3.88;;;5.70;99.90;;;;;;5025605;28;20363;-85
2024/02/26 10:11:07;;;;;;;5.60;3.08;;;5.70;99.90;;;;;;5007363;28;20488;-84
2024/02/26 10:13:35;;;;;;;5.47;3.17;;;5.80;99.90;;;;;;5024176;28;20042;-84
2024/02/26 10:16:03;;;;;;;6.63;4.15;;;5.70;99.90;;;;;;5024366;28;20033;-83
2024/02/26 10:18:53;;;;;;;7.30;4.30;;;5.70;99.90;;;;;;5021920;28;20434;-85
2024/02/26 10:21:20;;;;;;;6.43;3.85;;;5.80;99.90;;;;;;5017090;28;20014;-83
2024/02/26 10:23:47;;;;;;;7.80;4.30;;;5.80;99.90;;;;;;5025313;28;20035;-83
2024/02/26 10:26:14;;;;;;;9.05;5.50;;;5.80;99.90;;;;;;5000035;28;20014;-84
2024/02/26 10:28:42;;;;;;;10.27;6.20;;;5.80;99.90;;;;;;5021555;28;20036;-84
2024/02/26 10:31:09;;;;;;;10.68;6.47;;;5.80;99.90;;;;;;5024825;28;20053;-84
2024/02/26 10:33:36;;;;;;;8.60;5.28;;;5.80;99.90;;;;;;5001056;28;22118;-84
2024/02/26 10:36:06;;;;;;;9.52;6.40;;;5.80;99.90;;;;;;5016939;28;20026;-84
2024/02/26 10:38:36;;;;;;;9.50;6.22;;;5.80;99.90;;;;;;5015433;28;20404;-84
2024/02/26 10:41:03;;;;;;;8.50;5.35;;;5.80;99.90;;;;;;5007867;28;20036;-83
2024/02/26 10:43:29;;;;;;;8.07;4.40;;;5.80;99.90;;;;;;5016700;28;20033;-83
2024/02/26 10:45:55;;;;;;;8.10;5.10;;;5.90;99.90;;;;;;5024486;28;22281;-84
2024/02/26 10:48:21;;;;;;;7.78;5.03;;;5.80;99.90;;;;;;5018272;28;20044;-84
2024/02/26 10:50:48;;;;;;;10.00;5.57;;;5.90;99.90;;;;;;5037819;28;20022;-86
2024/02/26 10:53:20;;;;;;;11.65;6.03;;;5.80;99.90;;;;;;5016857;28;20478;-83
2024/02/26 10:55:50;;;;;;;11.95;6.90;;;5.90;99.90;;;;;;5003754;28;20552;-83
2024/02/26 10:58:17;;;;;;;11.18;6.63;;;5.90;99.90;;;;;;5020209;28;20037;-84
2024/02/26 11:00:43;;;;;;;12.93;8.20;;;5.90;99.90;;;;;;5003130;28;20543;-83
2024/02/26 11:03:10;;;;;;;14.88;8.75;;;5.80;99.90;;;;;;5035119;28;20508;-83
2024/02/26 11:05:37;;;;;;;12.50;8.10;;;5.80;99.90;;;;;;5023919;28;20079;-84
2024/02/26 11:08:05;;;;;;;13.15;7.60;;;5.90;99.90;;;;;;5022452;28;20025;-83
2024/02/26 11:10:31;;;;;;;10.65;7.10;;;5.80;99.90;;;;;;5017532;28;20120;-83
2024/02/26 11:13:01;;;;;;;12.05;7.28;;;5.80;99.90;;;;;;5032854;28;20128;-85
2024/02/26 11:15:28;;;;;;;13.70;7.22;;;5.90;99.90;;;;;;5022564;28;20030;-84
2024/02/26 11:17:56;;;;;;;13.10;9.05;;;5.90;99.90;;;;;;5038227;28;20053;-84
2024/02/26 11:20:23;;;;;;;15.68;8.55;;;5.90;99.90;;;;;;5016151;28;20034;-84
2024/02/26 11:22:49;;;;;;;14.32;8.45;;;5.80;99.90;;;;;;5024887;28;20022;-83
2024/02/26 11:25:16;;;;;;;11.98;7.63;;;5.80;99.90;;;;;;4999903;28;20441;-84
2024/02/26 11:27:57;;;;;;;10.85;6.70;;;5.80;99.90;;;;;;5021709;28;20500;-83
2024/02/26 11:30:25;;;;;;;12.57;8.02;;;5.90;99.90;;;;;;5023416;28;20087;-83
2024/02/26 11:32:52;;;;;;;15.02;9.02;;;5.90;99.90;;;;;;5022717;28;20096;-83
2024/02/26 11:35:18;;;;;;;15.40;8.70;;;5.90;99.90;;;;;;5034466;28;20083;-83
2024/02/26 11:37:57;;;;;;;11.93;7.63;;;5.90;99.90;;;;;;5018817;28;20120;-83
2024/02/26 11:40:27;;;;;;;13.65;8.48;;;5.90;99.90;;;;;;5026930;28;20037;-83
2024/02/26 11:42:54;;;;;;;11.88;7.40;;;5.90;99.90;;;;;;5042734;28;20041;-84
2024/02/26 11:45:37;;;;;;;10.90;6.85;;;5.90;99.90;;;;;;5025959;28;20091;-84
2024/02/26 11:48:03;;;;;;;9.70;5.55;;;5.90;99.90;;;;;;5042198;28;20533;-84
2024/02/26 11:50:38;;;;;;;9.60;6.05;;;5.90;99.90;;;;;;5004648;28;20033;-84
2024/02/26 11:53:20;;;;;;;11.55;6.93;;;5.90;99.90;;;;;;5043168;28;20044;-83
2024/02/26 11:55:46;;;;;;;11.05;6.70;;;5.90;99.90;;;;;;5027973;28;20082;-84
2024/02/26 11:58:11;;;;;;;9.27;5.20;;;5.90;99.90;;;;;;5026308;28;20029;-83
2024/02/26 12:00:40;;;;;;;9.23;6.43;;;5.90;99.90;;;;;;5009541;28;20106;-83
2024/02/26 12:03:08;;;;;;;11.73;6.63;;;6.00;99.90;;;;;;5042131;28;20079;-83
2024/02/26 12:05:36;;;;;;;12.05;6.93;;;5.90;99.90;;;;;;5025737;28;20488;-83
2024/02/26 12:08:07;;;;;;;10.15;6.93;;;5.90;99.90;;;;;;5005190;28;20064;-83
2024/02/26 12:10:40;;;;;;;9.93;5.72;;;5.90;99.90;;;;;;5010722;28;20537;-83
2024/02/26 12:13:16;;;;;;;6.85;4.43;;;6.00;99.90;;;;;;5017749;28;20137;-82
2024/02/26 12:15:51;;;;;;;9.95;6.43;;;6.00;99.90;;;;;;5026974;28;20465;-84
2024/02/26 12:18:18;;;;;;;8.75;5.70;;;6.00;99.90;;;;;;5003386;28;20044;-83
2024/02/26 12:20:44;;;;;;;9.32;5.78;;;6.00;99.90;;;;;;5042299;28;20026;-83
2024/02/26 12:23:16;;;;;;;7.80;4.63;;;6.00;99.90;;;;;;5023171;28;20059;-82
2024/02/26 12:25:44;;;;;;;8.50;4.85;;;6.00;99.90;;;;;;4996745;28;20045;-83
2024/02/26 12:28:10;;;;;;;8.00;4.90;;;6.00;99.90;;;;;;5023305;28;20017;-83
2024/02/26 12:30:35;;;;;;;6.63;4.13;;;6.00;99.90;;;;;;5008834;28;20049;-83
2024/02/26 12:33:02;;;;;;;7.05;4.22;;;6.00;99.90;;;;;;4996397;28;20125;-84
2024/02/26 12:35:31;;;;;;;5.10;3.75;;;6.00;99.90;;;;;;5014614;28;20560;-83
2024/02/26 12:37:57;;;;;;;6.13;3.38;;;6.00;99.90;;;;;;5024208;28;20048;-83
2024/02/26 12:40:23;;;;;;;6.68;3.25;;;6.00;99.90;;;;;;4991539;28;20058;-84
2024/02/26 12:42:49;;;;;;;6.47;4.32;;;6.00;99.90;;;;;;5009356;28;21055;-84
2024/02/26 12:45:16;;;;;;;7.32;3.92;;;6.00;99.90;;;;;;5007674;28;20962;-82
2024/02/26 12:47:43;;;;;;;5.82;3.33;;;6.00;99.90;;;;;;5012142;28;20029;-83
2024/02/26 12:50:10;;;;;;;6.68;3.50;;;6.00;99.90;;;;;;5013515;28;20508;-83
2024/02/26 12:52:42;;;;;;;4.80;3.03;;;6.00;99.90;;;;;;5010686;28;20504;-84